Time;durP1;ratioP1;P1;durP2;ratioP2;P2;SDS_P1;SDS_P2;PMS_P1;PMS_P2;Temp;Humidity;BMP_temperature;BMP_pressure;BME280_temperature;BME280_humidity;BME280_pressure;Samples;Min_cycle;Max_cycle;Signal;HPM_P1;HPM_P2
2022/04/11 00:02:23;;;;;;;;;44.50;35.00;;;;;7.97;50.50;98934.78;6194407;28;98687;-73
2022/04/11 00:05:27;;;;;;;;;42.60;34.40;;;;;7.94;50.82;98940.59;6131248;28;96846;-72
2022/04/11 00:08:31;;;;;;;;;43.00;35.40;;;;;7.88;50.65;98945.94;6086845;28;97612;-70
2022/04/11 00:11:34;;;;;;;;;42.60;35.00;;;;;7.92;50.57;98945.31;6087683;28;96249;-72
2022/04/11 00:14:38;;;;;;;;;39.60;33.60;;;;;7.94;50.47;98945.13;6086410;28;96595;-74
2022/04/11 00:17:42;;;;;;;;;45.00;35.00;;;;;7.96;50.34;98940.38;6086363;28;96378;-73
2022/04/11 00:20:47;;;;;;;;;43.40;34.00;;;;;8.04;50.27;98945.56;6070365;28;96594;-70
2022/04/11 00:23:52;;;;;;;;;42.80;34.00;;;;;8.10;50.27;98937.53;6150956;28;96869;-74
2022/04/11 00:26:55;;;;;;;;;38.00;32.00;;;;;7.95;50.50;98903.81;6212232;28;96917;-75
2022/04/11 00:29:58;;;;;;;;;39.00;32.60;;;;;8.19;50.23;98938.97;6193294;28;98235;-75
2022/04/11 00:33:02;;;;;;;;;45.00;35.00;;;;;8.35;49.90;98936.94;6211450;28;96974;-74
2022/04/11 00:36:06;;;;;;;;;42.40;34.00;;;;;8.31;49.63;98933.03;6078031;28;98037;-74
2022/04/11 00:39:10;;;;;;;;;40.00;33.20;;;;;8.29;49.72;98935.88;6083483;28;96697;-74
2022/04/11 00:42:15;;;;;;;;;39.60;33.40;;;;;8.27;49.68;98941.44;6086890;28;97402;-72
2022/04/11 00:45:18;;;;;;;;;42.40;35.00;;;;;7.97;49.44;98896.38;6085817;28;96766;-73
2022/04/11 00:48:21;;;;;;;;;39.50;32.50;;;;;8.27;49.75;98946.81;6085716;28;97387;-73
2022/04/11 00:51:26;;;;;;;;;44.00;33.00;;;;;8.27;49.70;98946.81;6114736;28;99644;-75
2022/04/11 00:54:33;;;;;;;;;36.00;32.00;;;;;8.24;49.62;98947.25;6085223;28;96803;-70
2022/04/11 00:57:37;;;;;;;;;39.00;32.40;;;;;8.28;49.72;98951.16;6087189;28;97313;-73
2022/04/11 01:00:41;;;;;;;;;38.00;33.00;;;;;8.32;49.69;98945.41;6164001;28;96815;-70
2022/04/11 01:03:45;;;;;;;;;34.80;30.80;;;;;8.27;49.58;98944.13;6209234;28;96876;-71
2022/04/11 01:06:48;;;;;;;;;37.60;31.00;;;;;8.23;49.77;98939.38;6210337;28;97377;-74
2022/04/11 01:09:53;;;;;;;;;37.00;32.00;;;;;8.18;49.73;98931.13;6208840;28;98570;-71
2022/04/11 01:12:56;;;;;;;;;35.40;31.40;;;;;8.11;49.85;98943.72;6192013;28;97501;-72
2022/04/11 01:16:01;;;;;;;;;34.40;29.00;;;;;8.04;50.11;98953.59;6210549;28;96992;-71
2022/04/11 01:19:07;;;;;;;;;31.25;29.25;;;;;7.99;50.11;98948.84;6196683;28;97030;-74
2022/04/11 01:22:12;;;;;;;;;33.00;29.60;;;;;8.04;49.92;98958.97;6172259;28;97283;-73
2022/04/11 01:25:16;;;;;;;;;34.60;30.00;;;;;7.93;50.03;98935.41;6094645;28;97983;-71
2022/04/11 01:28:23;;;;;;;;;34.40;30.00;;;;;8.02;49.80;98950.28;6072944;28;98290;-70
2022/04/11 01:31:26;;;;;;;;;31.20;28.40;;;;;8.16;49.72;98957.38;6059641;28;96883;-71
2022/04/11 01:34:31;;;;;;;;;31.80;28.60;;;;;8.23;49.73;98953.63;6088891;28;97954;-72
2022/04/11 01:37:36;;;;;;;;;33.00;28.00;;;;;8.20;49.60;98955.91;6088489;28;99256;-71
2022/04/11 01:40:48;;;;;;;;;33.40;30.00;;;;;8.03;49.71;99011.00;6194904;28;96536;-74
2022/04/11 01:43:52;;;;;;;;;36.00;30.00;;;;;8.15;49.68;98963.75;6088334;28;97811;-74
2022/04/11 01:46:55;;;;;;;;;34.60;30.00;;;;;8.09;49.76;98969.94;6088294;28;96474;-74
2022/04/11 01:49:59;;;;;;;;;33.60;28.40;;;;;8.04;49.72;98973.22;6088353;28;97849;-70
2022/04/11 01:53:06;;;;;;;;;29.40;28.00;;;;;7.95;50.02;98974.47;6072402;28;97818;-72
2022/04/11 01:56:10;;;;;;;;;34.00;30.00;;;;;7.94;49.94;98971.97;6072741;28;98206;-70
2022/04/11 01:59:16;;;;;;;;;31.50;29.00;;;;;7.84;50.32;98977.72;6088522;28;96453;-70
2022/04/11 02:02:20;;;;;;;;;31.25;29.25;;;;;7.87;50.20;98977.31;6199821;28;97529;-74
2022/04/11 02:05:24;;;;;;;;;32.00;29.00;;;;;7.83;50.47;98978.75;6172749;28;97018;-74
2022/04/11 02:08:29;;;;;;;;;31.40;29.40;;;;;7.79;50.34;98990.91;6089612;28;97647;-74
2022/04/11 02:11:37;;;;;;;;;30.60;28.60;;;;;7.70;50.92;98984.06;6088277;28;98233;-73
2022/04/11 02:14:42;;;;;;;;;29.00;25.00;;;;;7.74;50.46;98977.28;6088386;28;96236;-70
2022/04/11 02:17:47;;;;;;;;;30.00;26.20;;;;;7.74;50.52;98975.41;6088416;28;96894;-70
2022/04/11 02:20:50;;;;;;;;;31.60;29.60;;;;;7.64;50.49;98960.72;6088140;28;96182;-70
2022/04/11 02:23:55;;;;;;;;;28.00;25.00;;;;;7.70;50.86;98986.75;6089120;28;96312;-70
2022/04/11 02:26:59;;;;;;;;;30.00;27.00;;;;;7.65;50.82;98992.72;6088044;28;96988;-70
2022/04/11 02:30:03;;;;;;;;;27.00;24.00;;;;;7.67;50.77;98996.03;6103440;28;97212;-72
2022/04/11 02:33:07;;;;;;;;;25.40;24.00;;;;;7.64;50.66;98993.75;6087648;28;96411;-71
2022/04/11 02:36:11;;;;;;;;;30.00;28.40;;;;;7.66;51.06;99001.59;6087939;28;97355;-70
2022/04/11 02:39:15;;;;;;;;;28.00;24.60;;;;;7.69;50.87;98999.34;6167703;28;97562;-74
2022/04/11 02:42:21;;;;;;;;;25.50;23.00;;;;;7.40;50.65;98949.50;6105791;28;97312;-75
2022/04/11 02:45:27;;;;;;;;;26.60;24.00;;;;;7.70;50.82;98992.97;6070447;28;96938;-70
2022/04/11 02:48:30;;;;;;;;;25.00;22.00;;;;;7.55;50.74;98956.56;6102686;28;97299;-71
2022/04/11 02:51:48;;;;;;;;;22.75;21.75;;;;;7.80;50.61;99000.63;6086666;28;96397;-72
2022/04/11 02:54:55;;;;;;;;;23.00;21.00;;;;;7.89;50.79;98996.72;6087653;28;96866;-74
2022/04/11 02:57:59;;;;;;;;;25.00;22.20;;;;;7.95;50.71;99003.16;6087486;28;97611;-74
2022/04/11 03:01:03;;;;;;;;;28.00;24.00;;;;;8.05;50.51;99007.13;6104309;28;98331;-71
2022/04/11 03:04:07;;;;;;;;;21.20;18.20;;;;;8.13;50.51;99008.78;6096527;28;97320;-74
2022/04/11 03:07:38;;;;;;;;;22.00;20.00;;;;;8.24;50.08;99013.56;6060298;28;97930;-74
2022/04/11 03:10:43;;;;;;;;;23.00;20.00;;;;;8.31;50.09;99017.09;6089736;28;97297;-70
2022/04/11 03:13:48;;;;;;;;;20.00;19.00;;;;;8.35;49.93;99017.53;6089664;28;96307;-73
2022/04/11 03:16:52;;;;;;;;;23.33;19.33;;;;;8.40;49.70;99021.28;6082254;28;96953;-72
2022/04/11 03:19:56;;;;;;;;;22.00;21.00;;;;;8.42;49.63;99021.88;6081752;28;100242;-73
2022/04/11 03:22:59;;;;;;;;;22.00;19.00;;;;;8.46;49.61;99023.13;6085274;28;99667;-72
2022/04/11 03:26:08;;;;;;;;;23.00;21.00;;;;;8.52;49.16;99025.00;6070943;28;99460;-74
2022/04/11 03:29:14;;;;;;;;;20.80;18.80;;;;;8.55;49.08;99032.63;6087575;28;96404;-73
2022/04/11 03:32:17;;;;;;;;;19.40;17.00;;;;;8.41;49.13;99001.41;6085887;28;96572;-71
2022/04/11 03:35:21;;;;;;;;;20.60;16.00;;;;;8.64;49.13;99028.75;6086176;28;97110;-73
2022/04/11 03:38:24;;;;;;;;;19.50;18.00;;;;;8.69;49.20;99028.94;6089738;28;96599;-71
2022/04/11 03:41:31;;;;;;;;;21.00;19.00;;;;;8.74;49.29;99036.41;6103202;28;97705;-70
2022/04/11 03:44:45;;;;;;;;;20.75;19.75;;;;;8.77;49.18;99021.69;6084850;28;97858;-70
2022/04/11 03:47:51;;;;;;;;;22.00;20.00;;;;;8.79;49.35;99025.03;6064863;28;96600;-70
2022/04/11 03:50:59;;;;;;;;;22.00;19.00;;;;;8.87;49.19;99038.25;6086348;28;97418;-71
2022/04/11 03:54:10;;;;;;;;;21.40;20.00;;;;;8.92;48.98;99033.91;6086436;28;96765;-71
2022/04/11 03:57:15;;;;;;;;;20.00;19.00;;;;;8.94;48.81;99039.09;6061265;28;97046;-74
2022/04/11 04:00:19;;;;;;;;;18.60;17.60;;;;;8.96;48.84;99042.38;6069917;28;98293;-74
2022/04/11 04:03:41;;;;;;;;;19.60;16.60;;;;;9.01;48.79;99045.28;6070781;28;97702;-74
2022/04/11 04:06:46;;;;;;;;;20.00;18.00;;;;;8.99;48.77;99032.03;6087120;28;96367;-74
2022/04/11 04:09:52;;;;;;;;;20.00;18.00;;;;;8.95;48.63;99025.41;6072370;28;97021;-72
2022/04/11 04:12:59;;;;;;;;;20.40;18.00;;;;;9.12;48.51;99055.41;6086405;28;96849;-71
2022/04/11 04:16:03;;;;;;;;;21.00;18.00;;;;;9.10;48.61;99052.09;6069940;28;96933;-71
2022/04/11 04:19:08;;;;;;;;;20.00;19.00;;;;;9.09;48.83;99055.81;6086490;28;97249;-74
2022/04/11 04:22:11;;;;;;;;;22.00;18.20;;;;;9.06;48.81;99057.06;6160781;28;96407;-73
2022/04/11 04:25:14;;;;;;;;;21.00;17.00;;;;;9.02;49.07;99063.91;6228076;28;97379;-74
2022/04/11 04:28:19;;;;;;;;;17.00;16.40;;;;;8.99;49.24;99061.59;6110334;28;96537;-71
2022/04/11 04:31:28;;;;;;;;;20.00;18.00;;;;;9.07;48.96;99064.09;6090215;28;96546;-74
2022/04/11 04:34:31;;;;;;;;;20.00;18.00;;;;;9.02;49.00;99074.66;6090603;28;97393;-74
2022/04/11 04:37:36;;;;;;;;;19.33;17.33;;;;;9.09;48.97;99070.09;6087633;28;97452;-71
2022/04/11 04:40:40;;;;;;;;;20.80;18.00;;;;;9.11;49.13;99069.88;6107044;28;99377;-70
2022/04/11 04:43:47;;;;;;;;;21.50;19.00;;;;;9.00;49.11;99068.63;6061375;28;96818;-70
2022/04/11 04:46:52;;;;;;;;;21.60;19.60;;;;;9.18;48.92;99081.47;6081220;28;96894;-71
2022/04/11 04:50:04;;;;;;;;;18.80;15.80;;;;;9.19;48.77;99080.41;6101622;28;96820;-72
2022/04/11 04:53:08;;;;;;;;;18.40;15.40;;;;;9.18;48.72;99086.88;6066811;28;97371;-72
2022/04/11 04:56:11;;;;;;;;;19.20;16.00;;;;;9.16;48.81;99090.78;6212280;28;97098;-73
2022/04/11 04:59:19;;;;;;;;;20.50;18.50;;;;;9.26;48.66;99094.72;6142253;28;96484;-70
2022/04/11 05:02:22;;;;;;;;;17.00;16.00;;;;;9.29;48.53;99101.53;6073480;28;98724;-73
2022/04/11 05:05:27;;;;;;;;;15.00;15.00;;;;;9.24;48.48;99090.56;6101898;28;97241;-73
2022/04/11 05:08:35;;;;;;;;;18.75;17.00;;;;;9.18;48.46;99075.28;6107550;28;97800;-71
2022/04/11 05:11:39;;;;;;;;;22.00;17.50;;;;;9.37;48.27;99095.94;6098074;28;97433;-72
2022/04/11 05:14:43;;;;;;;;;18.40;16.00;;;;;9.43;48.34;99103.19;6102949;28;96802;-75
2022/04/11 05:17:49;;;;;;;;;16.00;16.00;;;;;9.47;48.07;99105.25;6097688;28;97474;-70
2022/04/11 05:20:55;;;;;;;;;16.00;14.00;;;;;9.50;47.88;99099.44;6087273;28;96416;-70
2022/04/11 05:24:00;;;;;;;;;17.00;15.00;;;;;9.53;47.88;99101.69;6075153;28;97417;-69
2022/04/11 05:27:05;;;;;;;;;16.00;14.00;;;;;9.60;47.59;99106.25;6125551;28;96349;-70
2022/04/11 05:30:11;;;;;;;;;19.00;16.40;;;;;9.49;47.99;99119.31;6071243;28;98215;-72
2022/04/11 05:33:16;;;;;;;;;17.40;16.00;;;;;9.56;47.64;99111.22;6085280;28;97265;-73
2022/04/11 05:36:19;;;;;;;;;18.20;16.00;;;;;9.82;47.29;99130.00;6070468;28;98078;-70
2022/04/11 05:39:24;;;;;;;;;14.80;14.00;;;;;9.97;46.91;99127.91;6094383;28;96414;-73
2022/04/11 05:42:28;;;;;;;;;19.40;17.60;;;;;10.14;46.62;99138.22;6096859;28;97525;-73
2022/04/11 05:45:37;;;;;;;;;16.60;14.60;;;;;10.18;46.23;99134.91;6133074;28;96292;-74
2022/04/11 05:48:42;;;;;;;;;16.00;15.00;;;;;10.19;46.21;99144.66;6095108;28;97123;-75
2022/04/11 05:51:46;;;;;;;;;20.75;16.00;;;;;10.19;46.09;99141.97;6088512;28;96341;-73
2022/04/11 05:54:49;;;;;;;;;17.40;17.00;;;;;10.23;45.98;99147.75;6129880;28;98062;-74
2022/04/11 05:57:53;;;;;;;;;20.00;17.00;;;;;10.24;45.96;99150.22;6120795;28;96677;-71
2022/04/11 06:00:58;;;;;;;;;19.80;17.40;;;;;10.25;45.94;99153.75;6081933;28;97364;-75
2022/04/11 06:04:01;;;;;;;;;18.00;16.80;;;;;10.42;45.82;99149.53;6082734;28;96664;-70
2022/04/11 06:07:07;;;;;;;;;16.00;14.00;;;;;10.45;45.33;99153.69;6079321;28;97462;-70
2022/04/11 06:10:12;;;;;;;;;16.00;15.00;;;;;10.43;45.56;99153.88;6075715;28;96640;-74
2022/04/11 06:13:17;;;;;;;;;20.00;17.60;;;;;10.43;45.37;99138.53;6068715;28;99385;-73
2022/04/11 06:16:24;;;;;;;;;22.00;19.60;;;;;10.60;45.15;99156.94;6122598;28;98284;-74
2022/04/11 06:19:27;;;;;;;;;21.00;19.00;;;;;10.61;45.27;99164.78;6104818;28;96852;-75
2022/04/11 06:22:31;;;;;;;;;18.60;17.60;;;;;10.65;45.21;99166.00;6103604;28;96492;-75
2022/04/11 06:25:34;;;;;;;;;19.60;17.00;;;;;10.46;45.16;99166.13;6080328;28;96870;-73
2022/04/11 06:28:41;;;;;;;;;22.40;18.60;;;;;10.56;45.19;99167.28;6086620;28;96516;-72
2022/04/11 06:31:47;;;;;;;;;22.00;18.00;;;;;10.71;45.19;99167.84;6079366;28;96475;-70
2022/04/11 06:34:56;;;;;;;;;17.80;16.00;;;;;10.92;44.64;99165.84;6081331;28;96752;-73
2022/04/11 06:38:01;;;;;;;;;17.80;15.80;;;;;11.25;44.12;99161.88;6087328;28;97986;-73
2022/04/11 06:41:04;;;;;;;;;18.00;17.00;;;;;11.85;43.20;99156.81;6085642;28;96563;-72
2022/04/11 06:44:08;;;;;;;;;16.00;15.00;;;;;12.43;41.84;99149.09;6070815;28;97567;-75
2022/04/11 06:47:32;;;;;;;;;14.40;14.00;;;;;12.78;40.07;99143.84;6128483;28;96957;-70
2022/04/11 06:50:36;;;;;;;;;17.00;16.00;;;;;13.25;39.97;99142.13;6077173;28;97030;-68
2022/04/11 06:53:39;;;;;;;;;17.00;15.00;;;;;13.44;38.52;99137.44;6087248;28;97821;-71
2022/04/11 06:56:42;;;;;;;;;15.25;13.75;;;;;13.73;37.87;99141.13;6085867;28;98378;-73
2022/04/11 06:59:46;;;;;;;;;14.60;13.20;;;;;14.12;36.83;99153.13;6072073;28;99310;-72
2022/04/11 07:02:50;;;;;;;;;16.00;13.00;;;;;14.57;36.63;99155.97;6079268;28;96248;-74
2022/04/11 07:05:53;;;;;;;;;16.50;14.25;;;;;14.79;35.62;99161.56;6064932;28;98601;-74
2022/04/11 07:08:57;;;;;;;;;17.40;15.00;;;;;14.97;35.50;99162.19;6081584;28;97006;-71
2022/04/11 07:12:00;;;;;;;;;14.00;11.60;;;;;15.09;34.86;99173.00;6086647;28;98055;-71
2022/04/11 07:15:04;;;;;;;;;13.00;12.00;;;;;14.73;34.64;99150.59;6084384;28;97416;-73
2022/04/11 07:18:09;;;;;;;;;12.60;11.40;;;;;15.06;35.26;99173.47;6096877;28;96308;-72
2022/04/11 07:21:12;;;;;;;;;15.20;12.20;;;;;15.08;34.91;99177.59;6085915;28;96774;-71
2022/04/11 07:24:16;;;;;;;;;15.00;14.00;;;;;15.18;35.51;99180.50;6172920;28;96422;-72
2022/04/11 07:27:19;;;;;;;;;16.00;15.00;;;;;15.25;35.01;99165.97;6095484;28;97608;-73
2022/04/11 07:30:23;;;;;;;;;16.00;13.40;;;;;15.32;34.39;99175.59;6079304;28;96588;-74
2022/04/11 07:33:28;;;;;;;;;14.00;13.00;;;;;15.18;34.44;99171.53;6081702;28;96936;-75
2022/04/11 07:36:32;;;;;;;;;12.75;11.00;;;;;15.16;33.94;99162.78;6061946;28;96390;-70
2022/04/11 07:39:35;;;;;;;;;11.25;10.00;;;;;15.13;33.68;99176.88;6071471;28;97444;-67
2022/04/11 07:42:38;;;;;;;;;9.40;9.00;;;;;14.78;33.16;99193.31;6079069;28;97992;-70
2022/04/11 07:45:42;;;;;;;;;10.00;9.00;;;;;14.85;33.58;99183.16;6087014;28;96563;-73
2022/04/11 07:48:46;;;;;;;;;12.75;12.00;;;;;14.77;33.70;99177.25;6082019;28;97361;-74
2022/04/11 07:51:50;;;;;;;;;11.20;11.00;;;;;14.57;34.10;99186.63;6085340;28;98190;-73
2022/04/11 07:54:54;;;;;;;;;10.60;10.00;;;;;14.55;34.14;99147.25;6085722;28;101275;-73
2022/04/11 07:57:57;;;;;;;;;12.00;10.60;;;;;15.18;33.70;99185.94;6085845;28;97281;-73
2022/04/11 08:01:01;;;;;;;;;10.00;9.00;;;;;15.55;32.33;99180.88;6068755;28;96792;-69
2022/04/11 08:04:06;;;;;;;;;11.60;10.60;;;;;15.78;32.38;99184.53;6083864;28;97362;-76
2022/04/11 08:07:09;;;;;;;;;9.00;8.00;;;;;15.74;32.25;99169.75;6076833;28;97460;-72
2022/04/11 08:10:12;;;;;;;;;8.00;7.00;;;;;15.74;31.23;99178.75;6075082;28;97157;-66
2022/04/11 08:13:15;;;;;;;;;7.00;7.00;;;;;16.15;30.61;99182.09;6085837;28;97370;-73
2022/04/11 08:16:19;;;;;;;;;6.60;6.00;;;;;16.56;29.79;99183.47;6084887;28;100145;-71
2022/04/11 08:19:23;;;;;;;;;6.20;5.20;;;;;16.76;29.82;99186.47;6095701;28;96785;-76
2022/04/11 08:22:27;;;;;;;;;8.00;7.00;;;;;16.35;29.49;99193.25;6083736;28;96891;-72
2022/04/11 08:25:30;;;;;;;;;4.25;4.00;;;;;16.03;29.97;99185.72;6071898;28;97396;-76
2022/04/11 08:28:33;;;;;;;;;8.60;8.00;;;;;16.07;30.39;99175.19;6100409;28;96608;-73
2022/04/11 08:31:37;;;;;;;;;7.00;6.00;;;;;16.02;30.26;99142.47;6083271;28;97002;-74
2022/04/11 08:34:41;;;;;;;;;9.00;8.00;;;;;16.37;30.52;99185.66;6105429;28;99709;-75
2022/04/11 08:37:45;;;;;;;;;7.00;6.00;;;;;16.17;30.00;99180.78;6092464;28;96324;-76
2022/04/11 08:40:50;;;;;;;;;7.00;7.00;;;;;15.86;31.12;99170.50;6081401;28;98474;-75
2022/04/11 08:43:56;;;;;;;;;9.00;6.00;;;;;15.67;31.84;99175.38;6057201;28;97053;-74
2022/04/11 08:47:02;;;;;;;;;8.00;7.80;;;;;15.38;32.52;99171.91;6125214;28;97542;-75
2022/04/11 08:50:10;;;;;;;;;7.00;7.00;;;;;14.96;32.87;99143.41;6147926;28;96712;-76
2022/04/11 08:53:14;;;;;;;;;8.00;6.20;;;;;14.87;32.44;99180.16;6211382;28;96358;-76
2022/04/11 08:56:17;;;;;;;;;6.00;5.00;;;;;14.70;32.84;99180.97;6204171;28;97181;-77
2022/04/11 08:59:20;;;;;;;;;7.00;6.00;;;;;14.60;32.88;99182.63;6119757;28;96841;-77
2022/04/11 09:02:32;;;;;;;;;4.25;4.25;;;;;14.33;32.37;99180.41;6088670;28;96285;-78
2022/04/11 09:05:36;;;;;;;;;4.33;4.00;;;;;14.90;32.48;99171.56;6085844;28;97409;-75
2022/04/11 09:08:41;;;;;;;;;6.00;4.75;;;;;15.74;31.01;99169.75;6065400;28;96249;-76
2022/04/11 09:11:44;;;;;;;;;5.00;4.00;;;;;16.27;29.84;99131.13;6046317;28;96988;-77
2022/04/11 09:14:52;;;;;;;;;6.00;5.00;;;;;16.73;29.40;99170.63;6080191;28;98673;-75
2022/04/11 09:17:57;;;;;;;;;6.00;5.00;;;;;16.65;29.67;99173.78;6206288;28;97329;-75
2022/04/11 09:21:01;;;;;;;;;4.00;4.00;;;;;16.89;29.01;99181.44;6210881;28;99750;-76
2022/04/11 09:24:15;;;;;;;;;4.40;4.00;;;;;17.56;28.63;99177.44;6211901;28;97420;-75
2022/04/11 09:27:24;;;;;;;;;5.75;5.00;;;;;18.21;28.34;99163.50;6080103;28;97046;-76
2022/04/11 09:30:31;;;;;;;;;4.00;4.00;;;;;17.77;28.36;99094.75;6087466;28;97444;-76
2022/04/11 09:33:39;;;;;;;;;4.80;4.80;;;;;18.12;27.00;99173.25;6093331;28;96565;-78
2022/04/11 09:36:48;;;;;;;;;3.20;3.20;;;;;18.07;27.31;99133.13;6063196;28;96625;-77
2022/04/11 09:40:08;;;;;;;;;6.00;6.00;;;;;18.60;27.20;99170.25;6082462;28;96406;-76
2022/04/11 09:43:13;;;;;;;;;6.00;6.00;;;;;17.98;28.70;99178.38;6066283;28;99841;-76
2022/04/11 09:46:18;;;;;;;;;4.00;4.00;;;;;17.91;29.36;99175.03;6051555;28;99403;-77
2022/04/11 09:49:22;;;;;;;;;4.60;4.00;;;;;17.84;27.89;99117.16;6084086;28;99713;-76
2022/04/11 09:52:29;;;;;;;;;4.00;4.00;;;;;18.35;27.55;99161.94;6066196;28;96845;-79
2022/04/11 09:55:34;;;;;;;;;6.00;5.00;;;;;18.77;27.28;99167.31;6091158;28;97944;-79
2022/04/11 09:58:39;;;;;;;;;4.00;3.00;;;;;18.24;27.49;99164.84;6086306;28;96565;-77
2022/04/11 10:01:44;;;;;;;;;6.00;5.75;;;;;18.22;27.67;99162.41;6083571;28;96424;-76
2022/04/11 10:04:48;;;;;;;;;5.00;4.50;;;;;18.45;28.39;99163.88;6093647;28;98079;-78
2022/04/11 10:07:54;;;;;;;;;6.60;6.00;;;;;17.67;29.06;99190.13;6189517;28;97680;-76
2022/04/11 10:10:57;;;;;;;;;7.00;6.00;;;;;17.16;29.78;99170.53;6216109;28;97449;-76
2022/04/11 10:14:02;;;;;;;;;6.00;5.00;;;;;17.23;29.97;99160.25;6163295;28;97459;-69
2022/04/11 10:17:06;;;;;;;;;6.60;6.60;;;;;16.54;31.82;99166.53;6112877;28;96893;-70
2022/04/11 10:20:10;;;;;;;;;7.20;6.80;;;;;16.04;33.41;99149.28;6089384;28;96597;-72
2022/04/11 10:23:27;;;;;;;;;7.00;7.00;;;;;15.76;33.42;99170.34;6073981;28;96382;-68
2022/04/11 10:26:43;;;;;;;;;5.50;5.00;;;;;16.08;33.79;99162.41;6075217;28;96292;-72
2022/04/11 10:29:49;;;;;;;;;7.75;6.00;;;;;16.28;32.87;99176.28;6129774;28;96769;-68
2022/04/11 10:32:56;;;;;;;;;7.00;7.00;;;;;16.18;32.80;99160.63;6075227;28;97691;-70
2022/04/11 10:36:01;;;;;;;;;9.00;8.00;;;;;16.16;32.85;99160.06;6065177;28;97549;-73
2022/04/11 10:39:27;;;;;;;;;6.00;6.00;;;;;16.62;32.56;99163.41;6102973;28;97481;-73
2022/04/11 10:42:30;;;;;;;;;8.00;7.00;;;;;17.11;31.45;99156.03;6070555;28;96753;-69
2022/04/11 10:45:36;;;;;;;;;7.00;7.00;;;;;17.43;30.91;99158.81;6070210;28;96889;-70
2022/04/11 10:49:00;;;;;;;;;8.00;7.00;;;;;17.79;30.33;99158.03;6090156;28;99507;-72
2022/04/11 10:52:31;;;;;;;;;9.40;8.00;;;;;17.94;30.23;99147.22;6103159;28;97067;-74
2022/04/11 10:55:37;;;;;;;;;6.00;5.00;;;;;17.65;28.91;99145.91;6080840;28;97085;-73
2022/04/11 10:58:51;;;;;;;;;5.60;5.00;;;;;17.30;29.75;99158.13;6059072;28;97609;-72
2022/04/11 11:01:59;;;;;;;;;5.00;5.00;;;;;16.95;30.74;99146.91;6111753;28;96874;-73
2022/04/11 11:05:24;;;;;;;;;3.80;3.80;;;;;16.62;30.30;99131.56;6124687;28;96417;-74
2022/04/11 11:08:32;;;;;;;;;4.00;4.00;;;;;16.63;31.07;99132.38;6133196;28;97571;-72
2022/04/11 11:11:37;;;;;;;;;4.00;3.40;;;;;16.55;30.83;99135.53;6106867;28;96749;-73
2022/04/11 11:14:42;;;;;;;;;5.00;4.00;;;;;16.29;31.66;99146.09;6103582;28;96271;-73
2022/04/11 11:17:55;;;;;;;;;5.00;5.00;;;;;15.63;33.38;99155.22;6120360;28;100104;-73
2022/04/11 11:20:59;;;;;;;;;5.00;5.00;;;;;14.71;35.33;99162.75;6188490;28;96815;-70
2022/04/11 11:24:13;;;;;;;;;5.00;5.00;;;;;14.09;36.41;99159.00;6186101;28;97634;-71
2022/04/11 11:27:19;;;;;;;;;6.00;6.00;;;;;14.23;37.32;99154.97;6077907;28;96783;-70
2022/04/11 11:30:23;;;;;;;;;5.25;5.00;;;;;14.46;37.16;99149.53;6086674;28;98057;-75
2022/04/11 11:33:27;;;;;;;;;3.80;3.00;;;;;15.26;35.82;99143.13;6086169;28;97639;-72
2022/04/11 11:36:32;;;;;;;;;3.00;3.00;;;;;16.01;33.87;99154.41;6073125;28;98212;-73
2022/04/11 11:39:45;;;;;;;;;4.00;4.00;;;;;17.09;34.33;99144.59;6063599;28;96963;-70
2022/04/11 11:42:50;;;;;;;;;6.00;5.00;;;;;17.66;32.11;99147.56;6064769;28;98264;-72
2022/04/11 11:45:56;;;;;;;;;5.00;5.00;;;;;18.03;31.85;99126.53;6079047;28;96830;-75
2022/04/11 11:49:00;;;;;;;;;5.00;5.00;;;;;18.69;29.46;99126.88;6082322;28;96837;-73
2022/04/11 11:52:03;;;;;;;;;6.00;5.00;;;;;19.46;29.19;99125.91;6076996;28;96374;-71
2022/04/11 11:55:07;;;;;;;;;5.00;4.60;;;;;19.61;29.00;99122.34;6079100;28;96854;-75
2022/04/11 11:58:12;;;;;;;;;3.00;3.00;;;;;19.34;28.25;99125.34;6074907;28;96860;-67
2022/04/11 12:01:16;;;;;;;;;5.00;5.00;;;;;19.23;28.25;99116.31;6081602;28;98853;-67
2022/04/11 12:04:21;;;;;;;;;5.00;5.00;;;;;19.07;28.03;99114.66;6086674;28;96325;-69
2022/04/11 12:07:24;;;;;;;;;5.00;5.00;;;;;19.10;28.15;99105.09;6087823;28;96851;-74
2022/04/11 12:10:27;;;;;;;;;5.00;5.00;;;;;19.17;27.87;99106.47;6088172;28;96330;-69
2022/04/11 12:13:34;;;;;;;;;5.40;5.00;;;;;19.29;27.25;99103.47;6085635;28;97663;-66
2022/04/11 12:16:39;;;;;;;;;4.00;4.00;;;;;19.01;27.00;99086.50;6080512;28;97390;-73
2022/04/11 12:19:42;;;;;;;;;5.00;5.00;;;;;18.93;27.47;99102.59;6086949;28;97861;-71
2022/04/11 12:23:04;;;;;;;;;4.25;4.00;;;;;18.51;27.97;99095.38;6100617;28;99471;-72
2022/04/11 12:26:07;;;;;;;;;6.00;5.00;;;;;18.21;28.18;99105.34;6087690;28;96485;-75
2022/04/11 12:29:14;;;;;;;;;6.00;5.00;;;;;17.70;28.84;99114.06;6070228;28;98108;-70
2022/04/11 12:32:17;;;;;;;;;5.00;5.00;;;;;17.41;29.94;99123.63;6086966;28;96937;-73
2022/04/11 12:35:21;;;;;;;;;5.60;4.00;;;;;17.19;30.31;99121.00;6070889;28;96406;-72
2022/04/11 12:38:42;;;;;;;;;4.80;4.80;;;;;17.23;29.39;99116.66;6061110;28;96961;-75
2022/04/11 12:41:47;;;;;;;;;4.00;4.00;;;;;17.83;28.64;99096.44;6063050;28;96563;-74
2022/04/11 12:45:01;;;;;;;;;5.00;4.25;;;;;18.61;26.82;99100.09;6084451;28;97033;-73
2022/04/11 12:48:06;;;;;;;;;5.00;3.40;;;;;18.94;27.42;99096.88;6078547;28;96864;-74
2022/04/11 12:51:13;;;;;;;;;4.00;4.00;;;;;18.66;26.89;99085.63;6075968;28;97537;-76
2022/04/11 12:54:16;;;;;;;;;7.20;5.00;;;;;18.37;27.36;99093.44;6064427;28;97549;-77
2022/04/11 12:57:22;;;;;;;;;4.00;3.00;;;;;17.96;26.33;99090.50;6075522;28;98515;-73
2022/04/11 13:00:28;;;;;;;;;3.00;3.00;;;;;18.03;25.85;99087.53;6082592;28;97991;-73
2022/04/11 13:03:31;;;;;;;;;4.00;4.00;;;;;18.20;25.12;99082.69;6077442;28;97837;-76
2022/04/11 13:06:35;;;;;;;;;4.00;3.20;;;;;17.96;25.42;99021.47;6082052;28;97702;-75
2022/04/11 13:09:39;;;;;;;;;5.00;5.00;;;;;18.19;24.96;99070.13;6063173;28;98282;-69
2022/04/11 13:12:43;;;;;;;;;3.00;3.00;;;;;18.16;25.66;99087.06;6074556;28;96879;-70
2022/04/11 13:19:05;;;;;;;;;5.00;4.00;;;;;17.33;27.80;99103.13;6063200;28;97170;-71
2022/04/11 13:22:08;;;;;;;;;4.00;3.60;;;;;17.18;28.61;99102.19;6076825;28;97910;-73
2022/04/11 13:25:11;;;;;;;;;5.00;4.20;;;;;17.07;29.12;99106.72;6109495;28;96763;-73
2022/04/11 13:28:14;;;;;;;;;4.00;4.00;;;;;16.81;29.35;99086.56;6090799;28;96979;-73
2022/04/11 13:31:19;;;;;;;;;4.00;4.00;;;;;16.68;29.68;99108.75;6082121;28;96359;-70
2022/04/11 13:34:22;;;;;;;;;3.00;3.00;;;;;16.70;27.51;99094.91;6088651;28;98349;-70
2022/04/11 13:37:26;;;;;;;;;3.00;3.00;;;;;16.50;26.00;99098.19;6086460;28;96821;-71
2022/04/11 13:40:38;;;;;;;;;3.00;3.00;;;;;16.46;25.72;99088.91;6081753;28;97467;-72
2022/04/11 13:43:41;;;;;;;;;2.60;2.60;;;;;16.32;25.18;99088.44;6075619;28;97371;-73
2022/04/11 13:46:47;;;;;;;;;2.00;2.00;;;;;16.41;25.02;99086.13;6070603;28;96854;-71
2022/04/11 13:49:51;;;;;;;;;1.20;1.20;;;;;16.71;25.20;99086.47;6076409;28;96906;-71
2022/04/11 13:52:54;;;;;;;;;3.00;2.60;;;;;17.13;25.02;99077.63;6077309;28;96985;-71
2022/04/11 13:55:58;;;;;;;;;4.00;4.00;;;;;17.28;25.44;99078.56;6088551;28;96727;-70
2022/04/11 13:59:01;;;;;;;;;4.00;3.00;;;;;17.75;25.39;99086.81;6090842;28;96907;-71
2022/04/11 14:02:10;;;;;;;;;6.00;5.00;;;;;17.98;25.38;99092.97;6090187;28;97976;-70
2022/04/11 14:05:14;;;;;;;;;4.00;4.00;;;;;18.05;25.14;99088.91;6112328;28;96239;-73
2022/04/11 14:08:17;;;;;;;;;6.40;5.40;;;;;18.03;25.17;99090.28;6094941;28;97631;-70
2022/04/11 14:11:20;;;;;;;;;4.00;4.00;;;;;17.96;25.57;99090.50;6111703;28;99940;-69
2022/04/11 14:14:25;;;;;;;;;4.50;4.00;;;;;17.46;25.60;99058.25;6112366;28;97028;-70
2022/04/11 14:17:29;;;;;;;;;4.00;4.00;;;;;17.49;26.61;99103.25;6097394;28;97110;-71
2022/04/11 14:20:33;;;;;;;;;5.00;4.00;;;;;17.19;27.02;99103.81;6159778;28;97391;-71
2022/04/11 14:23:36;;;;;;;;;8.00;7.00;;;;;16.88;27.98;99097.25;6124128;28;97581;-71
2022/04/11 14:26:40;;;;;;;;;4.80;4.00;;;;;16.93;28.19;99091.03;6102643;28;98574;-71
2022/04/11 14:29:44;;;;;;;;;4.00;3.50;;;;;16.94;28.45;99096.25;6079284;28;97634;-70